createdAt,value
2019-02-23T12:25:57.490Z,7.25
2019-02-23T12:28:26.762Z,7.35
2019-02-23T12:30:55.941Z,7.03
2019-02-23T12:33:25.029Z,7.10
2019-02-23T12:35:54.142Z,7.20
2019-02-23T12:38:23.371Z,6.80
2019-02-23T12:40:52.526Z,7.67
2019-02-23T12:43:41.163Z,6.70
2019-02-23T12:46:10.279Z,6.55
2019-02-23T12:48:39.373Z,8.08
2019-02-23T12:51:09.107Z,7.45
2019-02-23T12:53:38.358Z,7.55
2019-02-23T12:56:07.616Z,7.10
2019-02-23T12:58:36.820Z,7.95
2019-02-23T13:01:06.010Z,11.57
2019-02-23T13:03:35.132Z,8.93
2019-02-23T13:06:04.370Z,8.93
2019-02-23T13:09:12.128Z,11.35
2019-02-23T13:11:41.849Z,9.28
2019-02-23T13:15:01.191Z,9.40
2019-02-23T13:18:12.339Z,9.63
2019-02-23T13:21:10.587Z,11.40
2019-02-23T13:24:16.309Z,9.30
2019-02-23T13:27:25.517Z,11.93
2019-02-23T13:30:40.447Z,9.58
2019-02-23T13:33:40.794Z,10.48
2019-02-23T13:36:32.092Z,10.78
2019-02-23T13:39:23.295Z,15.28
2019-02-23T13:42:24.961Z,17.73
2019-02-23T13:45:25.988Z,13.03
2019-02-23T13:48:21.335Z,11.48
2019-02-23T13:51:31.410Z,13.15
2019-02-23T13:54:39.157Z,11.65
2019-02-23T13:57:33.623Z,9.30
2019-02-23T14:00:21.457Z,8.03
2019-02-23T14:03:49.977Z,12.40
2019-02-23T14:06:37.705Z,10.18
2019-02-23T14:09:56.061Z,9.75
2019-02-23T14:12:53.289Z,8.50
2019-02-23T14:15:59.023Z,15.23
2019-02-23T14:18:51.891Z,8.98
2019-02-23T14:21:47.824Z,11.10
2019-02-23T14:24:50.188Z,8.65
2019-02-23T14:27:45.455Z,11.05
2019-02-23T14:30:41.226Z,8.83
2019-02-23T14:33:54.059Z,10.15
2019-02-23T14:36:46.504Z,10.23
2019-02-23T14:40:01.494Z,9.23
2019-02-23T14:43:12.046Z,11.80
2019-02-23T14:46:00.601Z,11.63
2019-02-23T14:49:11.431Z,10.37
2019-02-23T14:52:20.696Z,11.37
2019-02-23T14:55:01.176Z,11.30
2019-02-23T14:57:58.549Z,10.73
2019-02-23T15:00:55.925Z,10.10
2019-02-23T15:04:04.822Z,9.97
2019-02-23T15:07:08.564Z,10.70
2019-02-23T15:10:05.331Z,10.80
2019-02-23T15:13:06.837Z,8.23
2019-02-23T15:16:25.967Z,9.23
2019-02-23T15:19:23.235Z,10.03
2019-02-23T15:22:33.301Z,9.93
2019-02-23T15:25:35.382Z,9.37
2019-02-23T15:28:41.288Z,10.37
2019-02-23T15:31:50.198Z,10.27
2019-02-23T15:34:44.072Z,7.97
2019-02-23T15:37:31.693Z,9.50
2019-02-23T15:40:33.393Z,7.63
2019-02-23T15:43:14.354Z,6.53
2019-02-23T15:45:49.915Z,6.87
2019-02-23T15:48:45.260Z,7.63
2019-02-23T15:51:14.737Z,8.00
2019-02-23T15:53:44.090Z,8.40
2019-02-23T15:56:13.404Z,7.33
2019-02-23T15:58:42.673Z,8.40
2019-02-23T16:01:11.958Z,8.60
2019-02-23T16:03:41.257Z,6.97
2019-02-23T16:06:10.643Z,9.27
2019-02-23T16:08:41.351Z,7.30
2019-02-23T16:11:11.571Z,12.13
2019-02-23T16:13:41.102Z,10.30
2019-02-23T16:16:10.401Z,7.80
2019-02-23T16:18:40.076Z,10.20
2019-02-23T16:21:09.163Z,8.30
2019-02-23T16:23:38.455Z,10.57
2019-02-23T16:26:07.796Z,11.53
2019-02-23T16:28:38.641Z,10.77
2019-02-23T16:31:07.895Z,11.40
2019-02-23T16:33:37.084Z,11.50
2019-02-23T16:36:06.804Z,10.77
2019-02-23T16:38:41.252Z,13.70
2019-02-23T16:41:10.500Z,15.97
2019-02-23T16:43:39.732Z,13.30
2019-02-23T16:46:09.125Z,13.20
2019-02-23T16:48:38.823Z,14.07
2019-02-23T16:51:08.038Z,14.53
2019-02-23T16:53:39.055Z,14.20
2019-02-23T16:56:08.256Z,11.27
2019-02-23T16:58:37.522Z,16.33
2019-02-23T17:01:06.803Z,12.60
2019-02-23T17:03:36.064Z,12.40
2019-02-23T17:06:06.797Z,15.00
2019-02-23T17:08:36.153Z,13.07
2019-02-23T17:11:05.397Z,13.47
2019-02-23T17:13:34.885Z,13.43
2019-02-23T17:16:04.094Z,12.67
2019-02-23T17:18:33.234Z,14.10
2019-02-23T17:21:02.624Z,14.97
2019-02-23T17:23:32.021Z,17.20
2019-02-23T17:26:04.461Z,15.63
2019-02-23T17:28:32.150Z,17.37
2019-02-23T17:31:01.391Z,14.90
2019-02-23T17:33:30.654Z,16.03
2019-02-23T17:35:59.862Z,16.13
2019-02-23T17:38:29.085Z,18.57
2019-02-23T17:40:58.318Z,16.37
2019-02-23T17:43:27.529Z,22.60
2019-02-23T17:45:56.702Z,17.30
2019-02-23T17:48:25.831Z,16.40
2019-02-23T17:50:55.132Z,15.90
2019-02-23T17:53:24.311Z,17.83
2019-02-23T17:55:53.433Z,15.47
2019-02-23T17:58:22.834Z,16.30
2019-02-23T18:00:52.062Z,18.37
2019-02-23T18:03:21.259Z,16.67
2019-02-23T18:05:50.529Z,17.23
2019-02-23T18:08:19.656Z,16.83
2019-02-23T18:10:48.860Z,18.73
2019-02-23T18:13:17.998Z,14.40
2019-02-23T18:15:47.202Z,14.37
2019-02-23T18:18:16.368Z,35.07
2019-02-23T18:20:45.559Z,31.53
2019-02-23T18:23:14.723Z,18.83
2019-02-23T18:25:43.860Z,19.47
2019-02-23T18:28:13.167Z,18.10
2019-02-23T18:30:42.353Z,16.30
2019-02-23T18:33:11.863Z,15.57
2019-02-23T18:35:40.964Z,15.30
2019-02-23T18:38:10.197Z,15.93
2019-02-23T18:40:39.438Z,16.73
2019-02-23T18:43:08.580Z,16.97
2019-02-23T18:45:37.826Z,15.93
2019-02-23T18:48:06.956Z,16.03
2019-02-23T18:50:36.194Z,18.03
2019-02-23T18:53:05.563Z,16.97
2019-02-23T18:55:40.834Z,17.70
2019-02-23T18:58:05.657Z,16.83
2019-02-23T19:00:34.889Z,19.97
2019-02-23T19:03:04.201Z,17.13
2019-02-23T19:05:33.438Z,19.93
2019-02-23T19:08:02.634Z,21.90
2019-02-23T19:10:31.836Z,18.53
2019-02-23T19:13:01.138Z,17.57
2019-02-23T19:15:30.332Z,16.67
2019-02-23T19:17:59.714Z,16.93
2019-02-23T19:20:28.962Z,18.90
2019-02-23T19:23:00.902Z,17.77
2019-02-23T19:25:49.289Z,16.27
2019-02-23T19:28:18.490Z,20.30
2019-02-23T19:30:47.602Z,15.93
2019-02-23T19:33:16.802Z,19.47
2019-02-23T19:35:46.042Z,16.23
2019-02-23T19:38:15.239Z,18.13
2019-02-23T19:40:44.401Z,18.97
2019-02-23T19:43:13.617Z,17.87
2019-02-23T19:45:42.832Z,20.47
2019-02-23T19:48:12.141Z,16.73
2019-02-23T19:50:44.854Z,16.50
2019-02-23T19:53:14.080Z,18.67
2019-02-23T19:55:43.404Z,21.40
2019-02-23T19:58:12.668Z,19.17
2019-02-23T20:00:41.868Z,19.73
2019-02-23T20:03:13.501Z,17.77
2019-02-23T20:05:42.706Z,17.23
2019-02-23T20:08:12.042Z,17.57
2019-02-23T20:10:42.935Z,19.00
2019-02-23T20:13:12.330Z,19.87
2019-02-23T20:15:41.659Z,18.10
2019-02-23T20:18:10.946Z,22.57
2019-02-23T20:20:40.541Z,20.20
2019-02-23T20:23:09.890Z,22.93
2019-02-23T20:25:42.117Z,20.40
2019-02-23T20:28:11.373Z,17.23
2019-02-23T20:30:40.526Z,20.03
2019-02-23T20:33:09.908Z,19.60
2019-02-23T20:35:39.100Z,18.63
2019-02-23T20:38:08.398Z,17.27
2019-02-23T20:40:37.633Z,16.70
2019-02-23T20:43:06.818Z,19.80
2019-02-23T20:45:36.074Z,19.40
2019-02-23T20:48:05.574Z,17.70
2019-02-23T20:50:34.800Z,19.13
2019-02-23T20:53:04.051Z,20.97
2019-02-23T20:55:33.287Z,19.20
2019-02-23T20:58:02.538Z,24.70
2019-02-23T21:00:31.739Z,21.70
2019-02-23T21:03:00.961Z,20.37
2019-02-23T21:05:30.101Z,18.77
2019-02-23T21:07:59.392Z,22.97
2019-02-23T21:10:28.660Z,27.90
2019-02-23T21:12:57.928Z,26.80
2019-02-23T21:15:27.048Z,30.33
2019-02-23T21:17:56.129Z,31.23
2019-02-23T21:20:25.326Z,28.37
2019-02-23T21:22:54.557Z,26.73
2019-02-23T21:25:23.761Z,21.13
2019-02-23T21:27:52.927Z,23.53
2019-02-23T21:30:22.150Z,22.23
2019-02-23T21:32:51.254Z,26.30
2019-02-23T21:35:20.437Z,23.10
2019-02-23T21:37:49.647Z,19.93
2019-02-23T21:40:18.758Z,24.23
2019-02-23T21:42:48.040Z,20.70
2019-02-23T21:45:17.310Z,25.30
2019-02-23T21:47:46.656Z,25.10
2019-02-23T21:50:15.908Z,27.23
2019-02-23T21:52:45.115Z,25.60
2019-02-23T21:55:14.328Z,26.97
2019-02-23T21:57:43.652Z,23.47
2019-02-23T22:00:12.945Z,26.53
2019-02-23T22:02:42.237Z,25.37
2019-02-23T22:05:12.593Z,23.90
2019-02-23T22:07:45.065Z,25.23
2019-02-23T22:10:14.301Z,27.57
2019-02-23T22:12:43.494Z,26.23
2019-02-23T22:15:12.702Z,26.87
2019-02-23T22:17:41.814Z,27.37
2019-02-23T22:20:10.950Z,24.67
2019-02-23T22:22:40.149Z,24.67
2019-02-23T22:25:09.395Z,25.17
2019-02-23T22:27:38.596Z,21.53
2019-02-23T22:30:08.782Z,22.70
2019-02-23T22:32:37.874Z,25.77
2019-02-23T22:35:07.188Z,23.20
2019-02-23T22:37:36.339Z,27.43
2019-02-23T22:40:06.083Z,25.33
2019-02-23T22:42:35.199Z,23.77
2019-02-23T22:45:04.686Z,31.60
2019-02-23T22:47:33.863Z,24.43
2019-02-23T22:50:03.062Z,24.87
2019-02-23T22:52:32.305Z,25.23
2019-02-23T22:57:44.837Z,28.50
2019-02-23T23:00:17.515Z,19.90
2019-02-23T23:02:46.756Z,22.50
2019-02-23T23:05:15.949Z,19.03
2019-02-23T23:07:45.123Z,24.27
2019-02-23T23:10:14.318Z,20.03
2019-02-23T23:12:43.481Z,17.13
2019-02-23T23:15:12.670Z,21.13
2019-02-23T23:17:41.930Z,18.73
2019-02-23T23:20:11.137Z,17.50
2019-02-23T23:22:40.254Z,18.13
2019-02-23T23:25:09.445Z,17.17
2019-02-23T23:27:38.541Z,17.77
2019-02-23T23:30:07.923Z,17.80
2019-02-23T23:32:37.091Z,19.43
2019-02-23T23:35:06.353Z,17.67
2019-02-23T23:37:38.189Z,20.07
2019-02-23T23:40:07.306Z,19.73
2019-02-23T23:42:36.474Z,16.07
2019-02-23T23:45:05.960Z,18.43
2019-02-23T23:47:35.061Z,19.70
2019-02-23T23:50:04.388Z,17.63
2019-02-23T23:52:33.495Z,15.23
2019-02-23T23:55:02.604Z,15.87
2019-02-23T23:57:31.730Z,15.00
